Hauptseite
METAR-TAF:

METAR-TAF

Flughäfen :

Harrisburg, Pennsylvania, Vereinigte Staaten

Breite: 40-13-02N, Länge: 076-51-05W, Höhe: 106 m

Beobachtung

Neuester Wetterbericht von vor 1 Stunde und 6 Minuten, um 01:56 UTC
Wind 5 kt aus Südost
Temperatur 19°C
Luftfeuchtigkeit 68%
Luftdruck 1022 hPa
Sichtweite: 16.1 km
Geschlossene Wolkendecke in der Höhe von 3700 ft

METAR: KCXY 250156Z AUTO 13005KT 10SM OVC037 19/13 A3019 RMK AO2 SLP225 T01940133

Zeit: 23:02 (03:02 UTC)


TAF: fehlend

Wetterbeobachtungen und Prognosen von mehr als 4000 Flughäfen (METAR und TAF Bericht).

Die verfügbaren Stationen werden durch gelbe und rote Markierungen auf der Karte dargestellt.

Führen Sie die Maus auf sie, um den Namen der Station zu sehen.

Darauf klicken, um die Beobachtung von Wetterbeobachtungen und Prognosen zu sehen.

Um die Karte zu ändern : klicken Sie auf den grünen Tasten mit einem schwarzen Kreuz Zum Vergrößern, auf den grünen Button mit einem Gedankenstrich zu verkleinern, oder auf die grünen Pfeile für benachbarte Karten.


METAR-TAF: